Muncie, Indiana
Current Conditions -  °F | °C
As of 2:53 AM on Thursday 29 Jan 2015 (Local Time) from KMIE Reporting Station
Clear Clear  
Wind Chill: -3°   Ceiling: Unl
Heat Index:   Visibility: 10mi
Dew Point: -7°   Wind: 17mph
Humidity: 52%   Direction: 180°S
Pressure: 29.91"   Gusts: 26mph
Location:  40.19°N, 85.38°W
Report Text: KMIE 290753Z AUTO 18015G23KT 10SM CLR 02/M07 A2991 RMK AO2 SLP134 T00221067
Loading
Personal Weather Stations






























Interactive Weather Map New forecast layout! Learn more

10-Day Weather Forecast

Advertisements
Track Severe Weather on mobile